createdAt,value
2018-03-20T00:01:30.268Z,97.03
2018-03-20T00:03:56.629Z,97.25
2018-03-20T00:06:23.143Z,97.54
2018-03-20T00:08:49.572Z,98.11
2018-03-20T00:11:16.015Z,97.47
2018-03-20T00:13:42.341Z,97.31
2018-03-20T00:16:08.697Z,97.07
2018-03-20T00:18:35.180Z,97.01
2018-03-20T00:21:01.557Z,97.30
2018-03-20T00:23:27.895Z,97.22
2018-03-20T00:25:54.277Z,96.79
2018-03-20T00:28:20.718Z,97.18
2018-03-20T00:30:47.145Z,96.89
2018-03-20T00:33:13.644Z,97.25
2018-03-20T00:35:39.978Z,97.46
2018-03-20T00:38:06.463Z,96.81
2018-03-20T00:40:32.915Z,97.21
2018-03-20T00:42:59.435Z,97.09
2018-03-20T00:45:25.777Z,97.26
2018-03-20T00:47:52.308Z,97.51
2018-03-20T00:50:18.763Z,97.62
2018-03-20T00:52:45.104Z,97.58
2018-03-20T00:55:11.479Z,97.68
2018-03-20T00:57:37.949Z,97.92
2018-03-20T01:00:04.307Z,97.65
2018-03-20T01:02:30.752Z,97.84
2018-03-20T01:04:57.108Z,97.55
2018-03-20T01:07:23.497Z,97.64
2018-03-20T01:09:49.933Z,97.23
2018-03-20T01:12:16.227Z,97.56
2018-03-20T01:14:42.647Z,97.62
2018-03-20T01:17:09.021Z,97.78
2018-03-20T01:19:35.467Z,97.56
2018-03-20T01:22:01.797Z,97.61
2018-03-20T01:24:28.103Z,97.58
2018-03-20T01:26:55.586Z,97.52
2018-03-20T01:29:21.974Z,97.90
2018-03-20T01:31:48.354Z,97.54
2018-03-20T01:34:14.740Z,97.26
2018-03-20T01:36:41.091Z,97.41
2018-03-20T01:39:07.605Z,97.29
2018-03-20T01:41:33.972Z,97.89
2018-03-20T01:44:00.269Z,97.57
2018-03-20T01:46:26.638Z,97.24
2018-03-20T01:48:53.041Z,97.13
2018-03-20T01:51:19.367Z,97.25
2018-03-20T01:53:45.741Z,97.18
2018-03-20T01:56:12.082Z,97.63
2018-03-20T01:58:38.499Z,97.42
2018-03-20T02:01:04.908Z,97.67
2018-03-20T02:03:31.411Z,97.57
2018-03-20T02:05:57.704Z,97.35
2018-03-20T02:08:24.196Z,97.51
2018-03-20T02:10:50.572Z,97.46
2018-03-20T02:13:16.903Z,97.59
2018-03-20T02:15:43.344Z,98.07
2018-03-20T02:18:09.710Z,97.85
2018-03-20T02:20:36.060Z,98.24
2018-03-20T02:23:02.487Z,98.32
2018-03-20T02:25:28.811Z,98.31
2018-03-20T02:27:55.210Z,98.14
2018-03-20T02:30:21.588Z,97.95
2018-03-20T02:32:47.896Z,97.77
2018-03-20T02:35:14.337Z,98.34
2018-03-20T02:37:40.844Z,98.26
2018-03-20T02:40:07.197Z,98.22
2018-03-20T02:42:33.498Z,97.86
2018-03-20T02:44:59.869Z,97.89
2018-03-20T02:47:26.202Z,97.83
2018-03-20T02:49:52.527Z,97.52
2018-03-20T02:52:19.702Z,97.39
2018-03-20T02:54:46.030Z,97.76
2018-03-20T02:57:12.342Z,98.22
2018-03-20T02:59:38.662Z,97.57
2018-03-20T03:02:05.030Z,97.81
2018-03-20T03:04:31.325Z,97.72
2018-03-20T03:06:57.666Z,97.63
2018-03-20T03:09:25.093Z,97.64
2018-03-20T03:11:51.385Z,97.17
2018-03-20T03:14:17.791Z,97.00
2018-03-20T03:16:44.106Z,97.05
2018-03-20T03:19:10.436Z,97.53
2018-03-20T03:21:36.752Z,97.83
2018-03-20T03:24:03.046Z,97.91
2018-03-20T03:26:29.549Z,97.88
2018-03-20T03:28:56.101Z,98.12
2018-03-20T03:31:22.400Z,97.24
2018-03-20T03:33:48.734Z,97.43
2018-03-20T03:36:15.075Z,97.28
2018-03-20T03:38:42.259Z,97.74
2018-03-20T03:41:08.561Z,97.50
2018-03-20T03:43:34.904Z,96.68
2018-03-20T03:46:01.265Z,96.08
2018-03-20T03:48:27.686Z,96.38
2018-03-20T03:50:54.090Z,95.49
2018-03-20T03:53:20.401Z,95.39
2018-03-20T03:55:46.719Z,95.00
2018-03-20T03:58:13.103Z,96.28
2018-03-20T04:00:39.516Z,96.90
2018-03-20T04:03:05.869Z,96.78
2018-03-20T04:05:32.215Z,97.03
2018-03-20T04:07:58.614Z,97.49
2018-03-20T04:10:24.952Z,97.07
2018-03-20T04:12:51.344Z,97.45
2018-03-20T04:15:17.689Z,97.63
2018-03-20T04:17:44.081Z,97.37
2018-03-20T04:20:10.604Z,97.83
2018-03-20T04:22:36.969Z,97.19
2018-03-20T04:25:03.415Z,97.49
2018-03-20T04:27:29.769Z,97.73
2018-03-20T04:29:56.130Z,98.00
2018-03-20T04:32:22.421Z,97.65
2018-03-20T04:34:48.783Z,97.74
2018-03-20T04:37:15.120Z,98.24
2018-03-20T04:39:41.623Z,97.87
2018-03-20T04:42:07.979Z,97.69
2018-03-20T04:44:34.298Z,97.67
2018-03-20T04:47:00.611Z,97.71
2018-03-20T04:49:27.081Z,97.16
2018-03-20T04:51:53.434Z,97.16
2018-03-20T04:54:19.773Z,97.21
2018-03-20T04:56:46.171Z,97.13
2018-03-20T04:59:12.644Z,96.76
2018-03-20T05:01:39.061Z,96.93
2018-03-20T05:04:05.431Z,96.45
2018-03-20T05:06:31.743Z,96.78
2018-03-20T05:08:58.141Z,95.28
2018-03-20T05:11:24.564Z,96.01
2018-03-20T05:13:50.912Z,95.77
2018-03-20T05:16:17.341Z,95.21
2018-03-20T05:18:44.636Z,94.96
2018-03-20T05:21:16.902Z,93.91
2018-03-20T05:23:56.119Z,93.29
2018-03-20T05:26:22.556Z,91.68
2018-03-20T05:28:48.942Z,93.41
2018-03-20T05:31:15.388Z,92.77
2018-03-20T05:33:41.751Z,91.31
2018-03-20T05:36:08.225Z,91.15
2018-03-20T05:38:34.797Z,90.49
2018-03-20T05:41:01.198Z,89.44
2018-03-20T05:43:27.585Z,90.47
2018-03-20T05:45:54.020Z,90.63
2018-03-20T05:48:20.447Z,90.03
2018-03-20T05:50:52.894Z,89.64
2018-03-20T05:53:19.386Z,88.05
2018-03-20T05:55:45.783Z,86.43
2018-03-20T05:58:12.228Z,88.04
2018-03-20T06:00:38.617Z,88.54
2018-03-20T06:03:04.902Z,87.81
2018-03-20T06:05:31.332Z,86.55
2018-03-20T06:07:57.745Z,86.56
2018-03-20T06:10:24.092Z,84.55
2018-03-20T06:12:50.457Z,83.96
2018-03-20T06:15:16.798Z,84.57
2018-03-20T06:17:43.147Z,85.24
2018-03-20T06:20:09.613Z,84.78
2018-03-20T06:22:36.018Z,83.65
2018-03-20T06:25:02.361Z,81.04
2018-03-20T06:27:28.759Z,79.63
2018-03-20T06:29:55.190Z,80.01
2018-03-20T06:32:21.593Z,79.80
2018-03-20T06:34:47.959Z,76.95
2018-03-20T06:37:14.375Z,75.34
2018-03-20T06:39:40.836Z,73.04
2018-03-20T06:42:07.280Z,73.23
2018-03-20T06:44:33.776Z,76.58
2018-03-20T06:47:00.178Z,79.22
2018-03-20T06:49:26.647Z,79.33
2018-03-20T06:51:53.005Z,78.71
2018-03-20T06:54:19.448Z,76.60
2018-03-20T06:56:45.944Z,74.36
2018-03-20T06:59:12.433Z,75.46
2018-03-20T07:01:38.987Z,75.99
2018-03-20T07:04:05.518Z,75.66
2018-03-20T07:06:31.954Z,72.23
2018-03-20T07:08:58.499Z,74.79
2018-03-20T07:11:25.001Z,71.79
2018-03-20T07:13:51.933Z,74.17
2018-03-20T07:16:18.769Z,71.79
2018-03-20T07:18:45.378Z,70.99
2018-03-20T07:21:11.899Z,72.17
2018-03-20T07:23:38.278Z,75.65
2018-03-20T07:26:04.799Z,80.64
2018-03-20T07:28:31.251Z,78.97
2018-03-20T07:30:57.749Z,76.31
2018-03-20T07:33:24.246Z,75.72
2018-03-20T07:35:50.625Z,74.65
2018-03-20T07:38:16.987Z,71.13
2018-03-20T07:40:43.415Z,74.54
2018-03-20T07:43:09.764Z,72.85
2018-03-20T07:45:36.113Z,73.76
2018-03-20T07:48:02.580Z,76.65
2018-03-20T07:50:28.900Z,72.78
2018-03-20T07:52:55.221Z,78.23
2018-03-20T07:55:21.687Z,78.09
2018-03-20T07:57:48.172Z,76.59
2018-03-20T08:00:14.590Z,76.59
2018-03-20T08:02:41.174Z,76.96
2018-03-20T08:05:07.568Z,76.94
2018-03-20T08:07:34.074Z,77.17
2018-03-20T08:10:00.753Z,76.44
2018-03-20T08:12:27.113Z,77.64
2018-03-20T08:14:53.536Z,78.30
2018-03-20T08:17:19.919Z,78.22
2018-03-20T08:19:46.354Z,77.59
2018-03-20T08:22:12.717Z,72.49
2018-03-20T08:24:39.104Z,71.17
2018-03-20T08:27:05.488Z,76.02
2018-03-20T08:29:31.900Z,72.70
2018-03-20T08:31:58.327Z,79.25
2018-03-20T08:34:24.703Z,79.00
2018-03-20T08:36:51.161Z,78.87
2018-03-20T08:39:17.754Z,79.87
2018-03-20T08:41:44.111Z,77.24
2018-03-20T08:44:10.501Z,77.99
2018-03-20T08:46:36.966Z,78.39
2018-03-20T08:49:03.365Z,80.54
2018-03-20T08:51:29.731Z,81.13
2018-03-20T08:53:56.146Z,81.13
2018-03-20T08:56:22.624Z,78.59
2018-03-20T08:58:48.987Z,76.05
2018-03-20T09:01:15.394Z,78.58
2018-03-20T09:03:41.884Z,77.68
2018-03-20T09:06:08.363Z,79.60
2018-03-20T09:08:34.818Z,79.98
2018-03-20T09:11:01.153Z,81.28
2018-03-20T09:13:27.636Z,85.99
2018-03-20T09:15:54.151Z,83.95
2018-03-20T09:18:20.568Z,81.58
2018-03-20T09:20:47.010Z,83.02
2018-03-20T09:23:13.481Z,86.71
2018-03-20T09:25:39.979Z,82.12
2018-03-20T09:28:06.450Z,80.09
2018-03-20T09:30:33.031Z,80.06
2018-03-20T09:32:59.804Z,79.91
2018-03-20T09:35:26.210Z,74.82
2018-03-20T09:37:52.616Z,74.94
2018-03-20T09:40:19.105Z,74.84
2018-03-20T09:42:45.582Z,75.51
2018-03-20T09:45:12.022Z,83.11
2018-03-20T09:47:38.449Z,77.20
2018-03-20T09:50:04.937Z,73.67
2018-03-20T09:52:31.554Z,74.37
2018-03-20T09:54:57.922Z,74.81
2018-03-20T09:57:24.538Z,77.08
2018-03-20T09:59:51.180Z,72.65
2018-03-20T10:02:17.599Z,74.25
2018-03-20T10:04:43.934Z,77.94
2018-03-20T10:07:10.377Z,74.68
2018-03-20T10:09:36.968Z,75.04
2018-03-20T10:12:03.337Z,75.77
2018-03-20T10:14:29.767Z,76.38
2018-03-20T10:16:56.221Z,77.67
2018-03-20T10:19:22.764Z,79.27
2018-03-20T10:21:49.216Z,81.11
2018-03-20T10:24:15.735Z,77.62
2018-03-20T10:26:42.175Z,76.00
2018-03-20T10:29:08.672Z,77.23
2018-03-20T10:31:35.205Z,76.64
2018-03-20T10:34:01.564Z,81.18
2018-03-20T10:36:28.297Z,78.66
2018-03-20T10:38:54.853Z,75.64
2018-03-20T10:41:21.456Z,74.14
2018-03-20T10:43:47.897Z,77.09
2018-03-20T10:46:14.379Z,74.39
2018-03-20T10:48:40.819Z,72.42
2018-03-20T10:51:08.265Z,79.09
2018-03-20T10:53:34.697Z,77.89
2018-03-20T10:56:01.246Z,81.56
2018-03-20T10:58:27.730Z,76.56
2018-03-20T11:01:00.381Z,75.00
2018-03-20T11:03:26.788Z,76.71
2018-03-20T11:05:53.168Z,79.78
2018-03-20T11:08:19.731Z,81.03
2018-03-20T11:10:46.287Z,79.92
2018-03-20T11:13:13.696Z,77.54
2018-03-20T11:15:40.184Z,82.28
2018-03-20T11:18:06.808Z,79.04
2018-03-20T11:20:33.254Z,80.77
2018-03-20T11:22:59.939Z,81.89
2018-03-20T11:25:26.424Z,81.08
2018-03-20T11:27:52.883Z,79.13
2018-03-20T11:30:19.414Z,80.27
2018-03-20T11:32:45.875Z,79.60
2018-03-20T11:35:12.242Z,78.46
2018-03-20T11:37:38.811Z,80.15
2018-03-20T11:40:05.306Z,76.48
2018-03-20T11:42:31.812Z,76.41
2018-03-20T11:44:58.372Z,74.85
2018-03-20T11:47:24.815Z,74.80
2018-03-20T11:49:51.231Z,76.14
2018-03-20T11:52:17.681Z,77.09
2018-03-20T11:54:44.089Z,76.00
2018-03-20T11:57:10.531Z,71.74
2018-03-20T11:59:37.656Z,73.97
2018-03-20T12:02:04.072Z,73.97
2018-03-20T12:04:30.453Z,72.66
2018-03-20T12:06:58.215Z,76.93
2018-03-20T12:09:48.762Z,78.47
2018-03-20T12:12:15.198Z,75.10
2018-03-20T12:14:41.569Z,73.91
2018-03-20T12:17:08.069Z,76.37
2018-03-20T12:19:34.598Z,75.42
2018-03-20T12:22:01.050Z,77.24
2018-03-20T12:24:27.560Z,73.71
2018-03-20T12:26:53.956Z,72.23
2018-03-20T12:29:20.414Z,77.87
2018-03-20T12:31:46.769Z,70.21
2018-03-20T12:34:13.162Z,69.25
2018-03-20T12:36:39.539Z,68.22
2018-03-20T12:39:06.020Z,67.83
2018-03-20T12:41:32.543Z,66.12
2018-03-20T12:43:58.945Z,66.81
2018-03-20T12:46:25.288Z,65.74
2018-03-20T12:48:52.479Z,64.41
2018-03-20T12:51:18.835Z,67.19
2018-03-20T12:53:45.315Z,67.47
2018-03-20T12:56:11.739Z,64.59
2018-03-20T12:58:38.242Z,63.46
2018-03-20T13:01:04.767Z,65.57
2018-03-20T13:03:31.236Z,64.50
2018-03-20T13:05:57.734Z,67.65
2018-03-20T13:08:24.172Z,61.12
2018-03-20T13:10:50.568Z,67.66
2018-03-20T13:13:17.178Z,71.41
2018-03-20T13:15:43.664Z,61.14
2018-03-20T13:18:10.005Z,65.21
2018-03-20T13:20:36.431Z,64.87
2018-03-20T13:23:02.950Z,61.46
2018-03-20T13:25:29.282Z,57.93
2018-03-20T13:27:55.666Z,59.00
2018-03-20T13:30:22.273Z,60.38
2018-03-20T13:32:48.691Z,54.83
2018-03-20T13:35:15.031Z,57.82
2018-03-20T13:37:41.731Z,57.49
2018-03-20T13:40:08.630Z,55.53
2018-03-20T13:42:35.017Z,57.37
2018-03-20T13:45:01.367Z,59.66
2018-03-20T13:47:27.801Z,56.36
2018-03-20T13:49:54.287Z,56.94
2018-03-20T13:52:20.811Z,56.11
2018-03-20T13:54:47.261Z,59.90
2018-03-20T13:57:13.609Z,55.78
2018-03-20T13:59:40.227Z,64.42
2018-03-20T14:02:06.575Z,56.83
2018-03-20T14:04:33.041Z,59.75
2018-03-20T14:07:00.844Z,58.56
2018-03-20T14:09:27.678Z,59.38
2018-03-20T14:11:54.339Z,59.36
2018-03-20T14:14:21.169Z,59.02
2018-03-20T14:16:48.245Z,64.37
2018-03-20T14:19:14.927Z,64.91
2018-03-20T14:21:41.436Z,63.08
2018-03-20T14:24:07.946Z,64.93
2018-03-20T14:26:34.353Z,61.69
2018-03-20T14:29:01.049Z,62.98
2018-03-20T14:31:28.858Z,61.57
2018-03-20T14:33:55.286Z,61.43
2018-03-20T14:36:21.673Z,62.16
2018-03-20T14:38:48.100Z,61.31
2018-03-20T14:41:14.650Z,60.52
2018-03-20T14:43:41.103Z,61.14
2018-03-20T14:46:07.445Z,60.70
2018-03-20T14:48:33.880Z,60.97
2018-03-20T14:51:00.377Z,59.42
2018-03-20T14:53:26.705Z,60.84
2018-03-20T14:55:53.160Z,63.47
2018-03-20T14:58:19.606Z,59.29
2018-03-20T15:00:46.033Z,58.46
2018-03-20T15:03:12.386Z,67.26
2018-03-20T15:05:38.885Z,63.03
2018-03-20T15:08:05.253Z,59.71
2018-03-20T15:10:31.743Z,56.68
2018-03-20T15:12:58.359Z,60.05
2018-03-20T15:15:24.712Z,57.35
2018-03-20T15:17:51.169Z,57.80
2018-03-20T15:20:17.853Z,56.26
2018-03-20T15:22:44.399Z,60.79
2018-03-20T15:25:10.765Z,58.01
2018-03-20T15:27:37.277Z,59.30
2018-03-20T15:30:04.006Z,69.86
2018-03-20T15:32:30.664Z,60.43
2018-03-20T15:34:57.186Z,72.59
2018-03-20T15:37:23.701Z,73.00
2018-03-20T15:39:51.222Z,75.02
2018-03-20T15:42:17.967Z,71.67
2018-03-20T15:44:44.328Z,76.63
2018-03-20T15:47:10.750Z,70.80
2018-03-20T15:49:37.167Z,76.76
2018-03-20T15:52:03.573Z,75.42
2018-03-20T15:54:30.009Z,79.47
2018-03-20T15:56:56.655Z,81.62
2018-03-20T15:59:23.347Z,83.26
2018-03-20T16:01:49.940Z,83.25
2018-03-20T16:04:16.718Z,83.96
2018-03-20T16:06:43.365Z,84.95
2018-03-20T16:09:09.988Z,79.77
2018-03-20T16:11:36.499Z,81.86
2018-03-20T16:14:02.885Z,83.49
2018-03-20T16:16:29.327Z,82.75
2018-03-20T16:18:56.075Z,85.05
2018-03-20T16:21:22.531Z,86.22
2018-03-20T16:23:49.600Z,84.20
2018-03-20T16:26:16.564Z,84.70
2018-03-20T16:28:43.550Z,82.53
2018-03-20T16:31:10.358Z,81.48
2018-03-20T16:33:38.250Z,83.88
2018-03-20T16:36:04.948Z,85.70
2018-03-20T16:38:31.831Z,84.21
2018-03-20T16:40:58.685Z,84.60
2018-03-20T16:43:25.362Z,84.51
2018-03-20T16:45:52.233Z,84.72
2018-03-20T16:48:19.640Z,85.93
2018-03-20T16:50:46.453Z,84.63
2018-03-20T16:53:13.118Z,85.78
2018-03-20T16:55:39.763Z,85.42
2018-03-20T16:58:06.448Z,86.05
2018-03-20T17:00:33.257Z,86.96
2018-03-20T17:03:00.338Z,86.53
2018-03-20T17:05:27.049Z,87.37
2018-03-20T17:07:53.651Z,87.68
2018-03-20T17:10:20.508Z,88.44
2018-03-20T17:12:47.214Z,88.19
2018-03-20T17:15:14.034Z,88.62
2018-03-20T17:17:40.936Z,88.74
2018-03-20T17:20:08.273Z,88.77
2018-03-20T17:22:34.971Z,89.43
2018-03-20T17:25:01.794Z,88.77
2018-03-20T17:27:28.456Z,88.45
2018-03-20T17:29:55.336Z,88.23
2018-03-20T17:32:22.242Z,88.12
2018-03-20T17:34:49.020Z,88.25
2018-03-20T17:37:15.765Z,88.16
2018-03-20T17:39:42.564Z,88.65
2018-03-20T17:42:09.234Z,89.38
2018-03-20T17:44:35.951Z,90.04
2018-03-20T17:47:03.487Z,90.73
2018-03-20T17:49:30.325Z,90.31
2018-03-20T17:51:57.499Z,90.80
2018-03-20T17:54:24.255Z,91.04
2018-03-20T17:56:50.971Z,91.93
2018-03-20T17:59:17.657Z,92.39
2018-03-20T18:01:44.428Z,92.82
2018-03-20T18:04:11.183Z,93.11
2018-03-20T18:06:37.954Z,92.39
2018-03-20T18:09:04.743Z,92.78
2018-03-20T18:11:31.399Z,92.90
2018-03-20T18:13:58.165Z,92.94
2018-03-20T18:16:24.972Z,93.58
2018-03-20T18:18:52.614Z,93.56
2018-03-20T18:21:19.596Z,94.01
2018-03-20T18:23:46.338Z,94.22
2018-03-20T18:26:13.252Z,94.39
2018-03-20T18:28:40.282Z,94.13
2018-03-20T18:31:07.152Z,94.83
2018-03-20T18:33:33.778Z,94.89
2018-03-20T18:36:00.541Z,94.47
2018-03-20T18:38:27.335Z,94.83
2018-03-20T18:40:54.307Z,95.03
2018-03-20T18:43:21.050Z,95.00
2018-03-20T18:45:47.681Z,94.36
2018-03-20T18:48:14.430Z,94.28
2018-03-20T18:50:41.367Z,94.86
2018-03-20T18:53:08.110Z,95.05
2018-03-20T18:55:34.836Z,95.91
2018-03-20T18:58:01.570Z,95.40
2018-03-20T19:00:28.223Z,95.50
2018-03-20T19:02:55.731Z,95.59
2018-03-20T19:05:22.510Z,95.46
2018-03-20T19:07:49.274Z,95.37
2018-03-20T19:10:17.054Z,95.88
2018-03-20T19:12:43.803Z,95.03
2018-03-20T19:15:10.507Z,95.00
2018-03-20T19:17:37.083Z,95.38
2018-03-20T19:20:03.986Z,94.88
2018-03-20T19:22:30.775Z,93.53
2018-03-20T19:24:57.484Z,93.43
2018-03-20T19:27:24.834Z,93.60
2018-03-20T19:29:51.510Z,95.00
2018-03-20T19:32:18.385Z,95.81
2018-03-20T19:34:45.136Z,96.43
2018-03-20T19:37:11.859Z,96.06
2018-03-20T19:39:38.537Z,96.17
2018-03-20T19:42:05.805Z,96.51
2018-03-20T19:44:32.676Z,96.30
2018-03-20T19:46:59.399Z,95.65
2018-03-20T19:49:26.235Z,95.48
2018-03-20T19:51:52.914Z,95.75
2018-03-20T19:54:19.708Z,94.85
2018-03-20T19:56:46.709Z,95.09
2018-03-20T19:59:13.579Z,95.39
2018-03-20T20:01:40.306Z,95.62
2018-03-20T20:04:07.022Z,96.28
2018-03-20T20:06:33.727Z,96.87
2018-03-20T20:09:00.532Z,96.28
2018-03-20T20:11:27.400Z,96.26
2018-03-20T20:13:54.153Z,96.18
2018-03-20T20:16:21.008Z,96.76
2018-03-20T20:18:47.798Z,96.70
2018-03-20T20:21:14.618Z,96.67
2018-03-20T20:23:41.409Z,96.58
2018-03-20T20:26:08.329Z,96.77
2018-03-20T20:28:34.870Z,97.45
2018-03-20T20:31:01.700Z,97.15
2018-03-20T20:33:28.733Z,97.38
2018-03-20T20:35:56.051Z,96.58
2018-03-20T20:38:22.769Z,96.59
2018-03-20T20:40:49.551Z,97.02
2018-03-20T20:43:16.144Z,97.54
2018-03-20T20:45:42.718Z,97.50
2018-03-20T20:48:09.560Z,96.94
2018-03-20T20:50:36.136Z,91.35
2018-03-20T20:53:02.879Z,91.99
2018-03-20T20:55:29.323Z,94.44
2018-03-20T20:57:55.693Z,93.95
2018-03-20T21:00:22.211Z,93.98
2018-03-20T21:02:48.706Z,94.09
2018-03-20T21:05:15.230Z,95.25
2018-03-20T21:07:41.871Z,94.92
2018-03-20T21:10:08.303Z,95.10
2018-03-20T21:12:34.751Z,95.02
2018-03-20T21:15:01.305Z,95.63
2018-03-20T21:17:27.736Z,94.57
2018-03-20T21:19:54.305Z,91.69
2018-03-20T21:22:20.814Z,92.48
2018-03-20T21:24:47.161Z,92.27
2018-03-20T21:27:13.533Z,92.00
2018-03-20T21:29:40.061Z,93.87
2018-03-20T21:32:06.467Z,91.99
2018-03-20T21:34:32.904Z,91.66
2018-03-20T21:36:59.284Z,91.84
2018-03-20T21:39:25.761Z,92.17
2018-03-20T21:41:52.187Z,91.91
2018-03-20T21:44:18.528Z,92.58
2018-03-20T21:46:44.866Z,93.09
2018-03-20T21:49:11.338Z,94.03
2018-03-20T21:51:38.013Z,93.87
2018-03-20T21:54:04.535Z,94.33
2018-03-20T21:56:30.906Z,94.80
2018-03-20T21:58:57.313Z,94.13
2018-03-20T22:01:23.668Z,94.28
2018-03-20T22:03:50.051Z,93.76
2018-03-20T22:06:16.460Z,95.58
2018-03-20T22:08:42.787Z,94.35
2018-03-20T22:11:09.252Z,95.62
2018-03-20T22:13:35.573Z,95.09
2018-03-20T22:16:02.434Z,93.83
2018-03-20T22:18:28.991Z,94.45
2018-03-20T22:20:55.396Z,94.36
2018-03-20T22:23:21.757Z,94.49
2018-03-20T22:25:48.174Z,94.88
2018-03-20T22:28:14.553Z,95.24
2018-03-20T22:30:41.040Z,95.06
2018-03-20T22:33:07.570Z,95.20
2018-03-20T22:35:33.975Z,94.71
2018-03-20T22:38:00.351Z,95.75
2018-03-20T22:40:26.925Z,95.19
2018-03-20T22:42:53.469Z,95.38
2018-03-20T22:45:19.817Z,94.57
2018-03-20T22:47:46.357Z,95.58
2018-03-20T22:50:12.890Z,95.38
2018-03-20T22:52:39.255Z,94.80
2018-03-20T22:55:05.791Z,94.12
2018-03-20T22:57:32.263Z,94.73
2018-03-20T22:59:58.883Z,94.80
2018-03-20T23:02:25.367Z,94.34
2018-03-20T23:04:51.967Z,94.18
2018-03-20T23:07:18.409Z,93.77
2018-03-20T23:09:44.844Z,94.32
2018-03-20T23:12:11.325Z,94.83
2018-03-20T23:14:37.696Z,94.70
2018-03-20T23:17:04.229Z,93.98
2018-03-20T23:19:30.721Z,93.95
2018-03-20T23:21:57.236Z,94.50
2018-03-20T23:24:23.605Z,94.26
2018-03-20T23:26:50.008Z,94.76
2018-03-20T23:29:16.498Z,92.81
2018-03-20T23:31:42.878Z,92.43
2018-03-20T23:34:09.226Z,93.75
2018-03-20T23:36:35.558Z,94.71
2018-03-20T23:39:01.963Z,95.02
2018-03-20T23:41:28.400Z,94.71
2018-03-20T23:43:54.708Z,95.19
2018-03-20T23:46:21.066Z,95.08
2018-03-20T23:48:47.372Z,95.06
2018-03-20T23:51:13.972Z,94.74
2018-03-20T23:53:40.475Z,95.49
2018-03-20T23:56:06.819Z,94.85
2018-03-20T23:58:33.191Z,95.63
